Time;durP1;ratioP1;P1;durP2;ratioP2;P2;SDS_P1;SDS_P2;PMS_P1;PMS_P2;Temp;Humidity;BMP_temperature;BMP_pressure;BME280_temperature;BME280_humidity;BME280_pressure;Samples;Min_cycle;Max_cycle;Signal;HPM_P1;HPM_P2
2022/09/23 00:01:48;;;;;;;12.97;11.20;;;8.40;99.90;;;;;;5085217;28;20451;-79
2022/09/23 00:04:14;;;;;;;12.83;11.53;;;8.40;99.90;;;;;;5083799;28;20443;-80
2022/09/23 00:06:43;;;;;;;15.80;11.20;;;8.40;99.90;;;;;;5077102;28;20513;-81
2022/09/23 00:09:10;;;;;;;12.50;10.90;;;8.40;99.90;;;;;;5076960;28;20450;-80
2022/09/23 00:11:37;;;;;;;12.90;9.77;;;8.40;99.90;;;;;;5075905;28;20486;-80
2022/09/23 00:14:04;;;;;;;12.10;10.30;;;8.50;99.90;;;;;;5076204;28;20872;-80
2022/09/23 00:16:33;;;;;;;13.43;10.07;;;8.50;99.90;;;;;;5075906;28;20465;-80
2022/09/23 00:19:00;;;;;;;13.93;10.70;;;8.50;99.90;;;;;;5075875;28;20480;-80
2022/09/23 00:21:27;;;;;;;11.80;10.60;;;8.50;99.90;;;;;;5077132;28;20508;-80
2022/09/23 00:23:55;;;;;;;11.27;9.37;;;8.50;99.90;;;;;;5077447;28;20992;-80
2022/09/23 00:26:23;;;;;;;13.30;10.53;;;8.50;99.90;;;;;;5075857;28;20464;-81
2022/09/23 00:28:50;;;;;;;16.03;10.40;;;8.50;99.90;;;;;;5075701;28;20497;-80
2022/09/23 00:31:19;;;;;;;12.50;10.27;;;8.50;99.90;;;;;;5075519;28;20444;-80
2022/09/23 00:33:46;;;;;;;11.63;10.57;;;8.50;99.90;;;;;;5075631;28;20855;-81
2022/09/23 00:36:15;;;;;;;14.33;10.40;;;8.40;99.90;;;;;;5075249;28;20467;-80
2022/09/23 00:38:41;;;;;;;12.87;10.27;;;8.40;99.90;;;;;;5077147;28;20471;-80
2022/09/23 00:41:10;;;;;;;11.23;9.40;;;8.40;99.90;;;;;;5082528;28;20484;-80
2022/09/23 00:43:39;;;;;;;14.97;10.60;;;8.40;99.90;;;;;;5078200;28;20443;-80
2022/09/23 00:46:07;;;;;;;10.83;9.83;;;8.40;99.90;;;;;;5099848;22;20486;-78
2022/09/23 00:48:36;;;;;;;12.17;9.90;;;8.40;99.90;;;;;;5077840;28;20486;-77
2022/09/23 00:51:05;;;;;;;9.80;8.70;;;8.40;99.90;;;;;;5078950;28;20493;-78
2022/09/23 00:53:32;;;;;;;13.37;9.57;;;8.40;99.90;;;;;;5077869;28;20543;-77
2022/09/23 00:56:06;;;;;;;12.00;9.80;;;8.50;99.90;;;;;;5078591;28;21002;-77
2022/09/23 00:58:36;;;;;;;12.83;9.13;;;8.50;99.90;;;;;;5077797;28;20432;-77
2022/09/23 01:01:04;;;;;;;11.47;9.20;;;8.40;99.90;;;;;;5077857;28;20517;-78
2022/09/23 01:03:31;;;;;;;11.30;9.47;;;8.40;99.90;;;;;;5077810;28;20447;-78
2022/09/23 01:05:58;;;;;;;10.17;9.13;;;8.40;99.90;;;;;;5077204;28;20470;-78
2022/09/23 01:08:27;;;;;;;15.17;9.33;;;8.30;99.90;;;;;;5077376;28;20434;-79
2022/09/23 01:11:04;;;;;;;10.57;9.00;;;8.30;99.90;;;;;;5077696;28;20752;-78
2022/09/23 01:13:41;;;;;;;10.30;9.13;;;8.30;99.90;;;;;;5077458;28;20444;-78
2022/09/23 01:16:14;;;;;;;10.60;8.70;;;8.30;99.90;;;;;;5077150;28;21002;-78
2022/09/23 01:18:48;;;;;;;9.73;8.60;;;8.30;99.90;;;;;;5077916;28;20436;-78
2022/09/23 01:21:28;;;;;;;9.10;8.30;;;8.30;99.90;;;;;;5078106;28;20865;-78
2022/09/23 01:24:19;;;;;;;9.07;8.07;;;8.30;99.90;;;;;;5077598;28;20432;-78
2022/09/23 01:27:30;;;;;;;10.77;8.10;;;8.30;99.90;;;;;;5091742;28;20487;-76
2022/09/23 01:30:07;;;;;;;11.97;8.40;;;8.30;99.90;;;;;;5032612;28;20478;-77
2022/09/23 01:33:05;;;;;;;9.70;8.40;;;8.30;99.90;;;;;;5091742;28;20532;-77
2022/09/23 01:35:43;;;;;;;8.63;7.83;;;8.20;99.90;;;;;;5089706;28;20481;-77
2022/09/23 01:38:19;;;;;;;9.90;8.33;;;8.00;99.90;;;;;;5091416;28;20433;-77
2022/09/23 01:40:51;;;;;;;9.80;8.60;;;8.20;99.90;;;;;;5092373;28;20434;-77
2022/09/23 01:43:23;;;;;;;9.03;7.57;;;8.10;99.90;;;;;;5092239;28;20431;-77
2022/09/23 01:45:55;;;;;;;9.00;8.10;;;8.20;99.90;;;;;;5092259;28;20471;-77
2022/09/23 01:48:29;;;;;;;9.50;8.60;;;8.30;99.90;;;;;;5091937;28;20427;-77
2022/09/23 01:51:00;;;;;;;11.50;8.90;;;8.40;99.90;;;;;;5087859;28;20430;-78
2022/09/23 01:53:38;;;;;;;10.67;8.47;;;8.30;99.90;;;;;;5077220;28;20984;-78
2022/09/23 01:56:09;;;;;;;9.00;8.17;;;8.20;99.90;;;;;;5077824;28;20867;-78
2022/09/23 01:58:40;;;;;;;8.90;8.03;;;8.10;99.90;;;;;;5077621;28;20957;-78
2022/09/23 02:01:10;;;;;;;13.00;7.77;;;8.00;99.90;;;;;;5077271;28;20475;-78
2022/09/23 02:03:43;;;;;;;8.70;7.90;;;8.00;99.90;;;;;;5084840;28;20491;-78
2022/09/23 02:06:14;;;;;;;9.37;8.47;;;8.00;99.90;;;;;;5080901;28;20491;-78
2022/09/23 02:08:44;;;;;;;11.00;8.07;;;8.00;99.90;;;;;;5077116;28;20463;-78
2022/09/23 02:11:14;;;;;;;8.93;7.93;;;7.90;99.90;;;;;;5076791;28;20928;-78
2022/09/23 02:13:47;;;;;;;9.67;8.77;;;7.90;99.90;;;;;;5076897;28;20505;-78
2022/09/23 02:16:21;;;;;;;13.03;9.17;;;7.80;99.90;;;;;;5075875;28;20878;-78
2022/09/23 02:18:55;;;;;;;9.13;8.23;;;7.80;99.90;;;;;;5075817;28;20455;-78
2022/09/23 02:21:25;;;;;;;8.70;7.53;;;7.70;99.90;;;;;;5075694;28;20874;-78
2022/09/23 02:23:58;;;;;;;8.70;7.37;;;7.70;99.90;;;;;;5076276;28;20435;-78
2022/09/23 02:26:34;;;;;;;11.07;8.20;;;7.70;99.90;;;;;;5077519;28;20476;-78
2022/09/23 02:29:07;;;;;;;9.37;8.10;;;7.80;99.90;;;;;;5076932;28;20795;-78
2022/09/23 02:31:40;;;;;;;11.93;9.80;;;7.80;99.90;;;;;;5076013;28;20654;-78
2022/09/23 02:34:17;;;;;;;8.40;7.47;;;7.70;99.90;;;;;;5076273;28;20430;-78
2022/09/23 02:36:49;;;;;;;9.30;8.03;;;7.70;99.90;;;;;;5075670;28;20471;-78
2022/09/23 02:39:20;;;;;;;10.80;8.87;;;7.70;99.90;;;;;;5076144;28;20443;-78
2022/09/23 02:41:55;;;;;;;9.53;8.30;;;7.70;99.90;;;;;;5075295;28;20468;-78
2022/09/23 02:44:22;;;;;;;9.80;8.37;;;7.90;99.90;;;;;;5075678;28;20424;-78
2022/09/23 02:46:50;;;;;;;14.07;9.00;;;7.70;99.90;;;;;;5075602;28;21004;-78
2022/09/23 02:49:22;;;;;;;13.57;8.65;;;7.70;99.90;;;;;;5076206;28;20862;-78
2022/09/23 02:51:49;;;;;;;12.20;9.33;;;7.70;99.90;;;;;;5075600;28;20638;-78
2022/09/23 02:54:19;;;;;;;8.57;7.67;;;7.90;99.90;;;;;;5075530;28;20481;-78
2022/09/23 02:56:48;;;;;;;9.57;8.60;;;7.80;99.90;;;;;;5075209;28;20519;-78
2022/09/23 02:59:18;;;;;;;9.80;8.60;;;7.70;99.90;;;;;;5075009;28;20453;-78
2022/09/23 03:02:07;;;;;;;10.33;9.10;;;7.60;99.90;;;;;;5075232;28;20223;-78
2022/09/23 03:04:46;;;;;;;10.05;8.65;;;7.70;99.90;;;;;;5075103;28;20435;-78
2022/09/23 03:07:17;;;;;;;13.37;9.10;;;7.70;99.90;;;;;;5074892;28;20228;-78
2022/09/23 03:09:52;;;;;;;11.37;8.97;;;7.60;99.90;;;;;;5075720;28;20432;-78
2022/09/23 03:12:33;;;;;;;9.60;8.60;;;7.50;99.90;;;;;;5075268;28;20524;-78
2022/09/23 03:15:08;;;;;;;10.80;9.10;;;7.50;99.90;;;;;;5075482;28;20189;-78
2022/09/23 03:17:40;;;;;;;12.10;10.02;;;7.50;99.90;;;;;;5075124;28;20230;-78
2022/09/23 03:20:14;;;;;;;9.27;8.32;;;7.50;99.90;;;;;;5074508;28;20214;-78
2022/09/23 03:22:45;;;;;;;8.83;8.00;;;7.50;99.90;;;;;;5074848;28;20212;-78
2022/09/23 03:25:17;;;;;;;11.43;9.20;;;7.50;99.90;;;;;;5074868;28;20436;-78
2022/09/23 03:27:44;;;;;;;15.03;8.50;;;7.50;99.90;;;;;;5075339;28;20231;-78
2022/09/23 03:30:13;;;;;;;9.63;8.57;;;7.40;99.90;;;;;;5074927;28;20450;-78
2022/09/23 03:32:45;;;;;;;9.37;8.20;;;7.40;99.90;;;;;;5075001;28;20447;-78
2022/09/23 03:35:14;;;;;;;11.35;7.53;;;7.40;99.90;;;;;;5075107;28;20435;-78
2022/09/23 03:37:47;;;;;;;12.87;9.37;;;7.40;99.90;;;;;;5074367;28;20220;-78
2022/09/23 03:40:18;;;;;;;9.27;7.73;;;7.30;99.90;;;;;;5077139;28;20431;-78
2022/09/23 03:42:47;;;;;;;9.77;8.85;;;7.40;99.90;;;;;;5084995;28;20471;-77
2022/09/23 03:45:18;;;;;;;10.10;8.93;;;7.30;99.90;;;;;;5092297;28;20205;-77
2022/09/23 03:47:45;;;;;;;10.90;9.05;;;7.30;99.90;;;;;;5092445;28;20489;-77
2022/09/23 03:50:16;;;;;;;12.30;8.90;;;7.30;99.90;;;;;;5091993;28;20199;-77
2022/09/23 03:52:43;;;;;;;10.55;9.45;;;7.20;99.90;;;;;;5093270;28;20186;-77
2022/09/23 03:55:10;;;;;;;9.82;8.82;;;7.20;99.90;;;;;;5092094;28;20202;-77
2022/09/23 03:57:37;;;;;;;10.00;9.00;;;7.20;99.90;;;;;;5090284;28;20225;-77
2022/09/23 04:00:06;;;;;;;10.52;9.35;;;7.20;99.90;;;;;;5086579;28;20449;-77
2022/09/23 04:02:32;;;;;;;9.07;8.23;;;7.20;99.90;;;;;;5087421;28;20219;-77
2022/09/23 04:04:59;;;;;;;10.32;8.48;;;7.20;99.90;;;;;;5088208;28;20210;-77
2022/09/23 04:07:28;;;;;;;9.55;8.63;;;7.20;99.90;;;;;;5088840;28;20229;-77
2022/09/23 04:09:54;;;;;;;12.30;9.45;;;7.20;99.90;;;;;;5090113;28;20206;-77
2022/09/23 04:12:21;;;;;;;11.57;8.27;;;7.10;99.90;;;;;;5088977;28;20224;-77
2022/09/23 04:14:48;;;;;;;10.32;8.75;;;7.00;99.90;;;;;;5085655;28;20266;-78
2022/09/23 04:17:15;;;;;;;8.50;7.70;;;7.00;99.90;;;;;;5082357;28;20634;-77
2022/09/23 04:19:42;;;;;;;10.70;9.68;;;7.00;99.90;;;;;;5081702;28;20568;-78
2022/09/23 04:22:10;;;;;;;12.48;9.30;;;6.90;99.90;;;;;;5078211;28;20272;-78
2022/09/23 04:24:38;;;;;;;10.70;9.60;;;6.90;99.90;;;;;;5078668;28;20257;-78
2022/09/23 04:27:05;;;;;;;13.50;8.57;;;6.90;99.90;;;;;;5077777;28;20589;-78
2022/09/23 04:29:31;;;;;;;9.05;8.25;;;6.80;99.90;;;;;;5077730;28;20468;-77
2022/09/23 04:31:58;;;;;;;9.48;8.25;;;6.90;99.90;;;;;;5077827;28;20211;-78
2022/09/23 04:34:25;;;;;;;13.00;8.05;;;6.90;99.90;;;;;;5077416;28;20210;-78
2022/09/23 04:36:51;;;;;;;10.02;9.05;;;6.90;99.90;;;;;;5078072;28;20230;-77
2022/09/23 04:39:18;;;;;;;10.50;9.40;;;6.90;99.90;;;;;;5078532;28;20203;-77
2022/09/23 04:41:47;;;;;;;10.88;9.70;;;6.80;99.90;;;;;;5078764;28;20226;-78
2022/09/23 04:44:15;;;;;;;16.60;12.30;;;6.80;99.90;;;;;;5078567;28;20248;-77
2022/09/23 04:46:46;;;;;;;9.27;8.38;;;6.90;99.90;;;;;;5078603;28;20330;-78
2022/09/23 04:49:13;;;;;;;10.65;9.13;;;7.10;99.90;;;;;;5078688;28;20615;-78
2022/09/23 04:51:42;;;;;;;9.98;9.00;;;7.10;99.90;;;;;;5077586;28;20196;-78
2022/09/23 04:54:09;;;;;;;9.60;8.30;;;7.00;99.90;;;;;;5078080;28;20297;-78
2022/09/23 04:56:36;;;;;;;9.73;8.70;;;6.90;99.90;;;;;;5077874;28;20601;-78
2022/09/23 04:59:05;;;;;;;9.07;8.18;;;6.90;99.90;;;;;;5077899;28;20210;-77
2022/09/23 05:01:34;;;;;;;9.68;8.48;;;6.80;99.90;;;;;;5078079;28;20262;-78
2022/09/23 05:04:04;;;;;;;9.57;8.57;;;6.90;99.90;;;;;;5084905;28;20574;-77
2022/09/23 05:06:33;;;;;;;10.20;8.82;;;6.80;99.90;;;;;;5077756;28;20223;-78
2022/09/23 05:09:00;;;;;;;11.55;8.93;;;6.80;99.90;;;;;;5077216;28;20205;-78
2022/09/23 05:11:29;;;;;;;10.05;8.95;;;6.90;99.90;;;;;;5077847;28;20260;-78
2022/09/23 05:13:55;;;;;;;12.00;9.63;;;6.90;99.90;;;;;;5076524;28;20331;-78
2022/09/23 05:16:24;;;;;;;14.30;10.40;;;7.00;99.90;;;;;;5077134;28;20311;-77
2022/09/23 05:18:52;;;;;;;12.15;10.20;;;7.10;99.90;;;;;;5080473;28;20594;-77
2022/09/23 05:21:21;;;;;;;15.05;11.50;;;7.10;99.90;;;;;;5079126;28;20289;-78
2022/09/23 05:23:51;;;;;;;18.70;11.15;;;7.20;99.90;;;;;;5077001;28;20215;-77
2022/09/23 05:26:17;;;;;;;12.57;9.15;;;6.90;99.90;;;;;;5075958;28;20442;-78
2022/09/23 05:28:44;;;;;;;12.48;9.63;;;7.20;99.90;;;;;;5075546;28;20205;-77
2022/09/23 05:31:13;;;;;;;11.73;9.00;;;7.20;99.90;;;;;;5076443;28;20275;-77
2022/09/23 05:33:43;;;;;;;10.00;9.00;;;7.10;99.90;;;;;;5076297;28;20197;-77
2022/09/23 05:36:10;;;;;;;24.58;11.20;;;7.20;99.90;;;;;;5075847;28;20268;-78
2022/09/23 05:38:37;;;;;;;10.75;8.38;;;7.10;99.90;;;;;;5076142;28;20213;-77
2022/09/23 05:41:05;;;;;;;9.93;8.70;;;7.10;99.90;;;;;;5075730;28;20575;-78
2022/09/23 05:43:33;;;;;;;9.07;8.15;;;7.10;99.90;;;;;;5076229;28;20569;-78
2022/09/23 05:46:04;;;;;;;9.15;8.27;;;7.30;99.90;;;;;;5076535;28;20235;-77
2022/09/23 05:48:32;;;;;;;9.80;8.05;;;7.30;99.90;;;;;;5076285;28;20716;-77
2022/09/23 05:51:00;;;;;;;11.57;8.82;;;7.20;99.90;;;;;;5075746;28;20236;-77
2022/09/23 05:53:28;;;;;;;10.38;7.75;;;7.20;99.90;;;;;;5075669;28;20487;-77
2022/09/23 05:55:55;;;;;;;11.50;8.30;;;7.20;99.90;;;;;;5075724;28;20225;-77
2022/09/23 05:58:23;;;;;;;15.13;10.03;;;7.30;99.90;;;;;;5075957;28;20457;-77
2022/09/23 06:00:51;;;;;;;11.57;8.60;;;7.30;99.90;;;;;;5076093;28;20421;-77
2022/09/23 06:03:19;;;;;;;13.15;8.50;;;7.20;99.90;;;;;;5075059;28;20454;-77
2022/09/23 06:05:47;;;;;;;34.43;15.90;;;7.50;99.90;;;;;;5075416;28;20299;-77
2022/09/23 06:08:15;;;;;;;9.65;8.63;;;7.60;99.90;;;;;;5075634;28;20458;-77
2022/09/23 06:10:44;;;;;;;11.03;8.80;;;7.60;99.90;;;;;;5075326;28;20563;-77
2022/09/23 06:13:11;;;;;;;10.60;8.30;;;7.70;99.90;;;;;;5075440;28;20442;-79
2022/09/23 06:15:38;;;;;;;10.10;8.00;;;7.90;99.90;;;;;;5075378;28;20951;-79
2022/09/23 06:18:06;;;;;;;13.17;8.00;;;7.70;99.90;;;;;;5076123;28;20873;-79
2022/09/23 06:20:33;;;;;;;12.67;8.77;;;7.80;99.90;;;;;;5075724;28;20454;-79
2022/09/23 06:23:04;;;;;;;10.23;7.70;;;7.80;99.90;;;;;;5075702;28;20508;-79
2022/09/23 06:25:32;;;;;;;10.43;8.30;;;7.80;99.90;;;;;;5076265;28;20435;-79
2022/09/23 06:27:58;;;;;;;8.43;7.10;;;7.90;99.90;;;;;;5084069;28;20444;-79
2022/09/23 06:30:26;;;;;;;9.20;8.37;;;8.00;99.90;;;;;;5077231;28;20982;-77
2022/09/23 06:32:54;;;;;;;8.63;7.82;;;8.10;99.90;;;;;;5085257;28;20486;-77
2022/09/23 06:35:23;;;;;;;9.40;8.50;;;8.10;99.90;;;;;;5081894;28;20229;-78
2022/09/23 06:37:49;;;;;;;11.67;8.27;;;8.20;99.90;;;;;;5079100;28;20444;-79
2022/09/23 06:40:17;;;;;;;8.40;7.50;;;8.20;99.90;;;;;;5074792;28;20455;-79
2022/09/23 06:42:45;;;;;;;7.63;6.90;;;8.20;99.90;;;;;;5076541;28;20546;-79
2022/09/23 06:45:15;;;;;;;10.20;7.93;;;8.30;99.90;;;;;;5078236;28;20436;-79
2022/09/23 06:47:43;;;;;;;7.23;6.53;;;8.40;99.90;;;;;;5092110;22;20851;-80
2022/09/23 06:50:12;;;;;;;8.60;7.73;;;8.50;99.90;;;;;;5079435;28;20458;-78
2022/09/23 06:52:39;;;;;;;11.20;8.37;;;;;;;;;;5077269;28;20523;-81
2022/09/23 06:55:07;;;;;;;9.10;7.60;;;8.60;99.90;;;;;;5076986;28;20440;-80
2022/09/23 06:57:34;;;;;;;8.20;7.50;;;8.70;99.90;;;;;;5076665;28;20486;-79
2022/09/23 07:00:03;;;;;;;8.98;7.35;;;8.70;99.90;;;;;;5076038;28;20835;-80
2022/09/23 07:02:29;;;;;;;11.17;7.67;;;8.70;99.90;;;;;;5076826;28;20221;-78
2022/09/23 07:04:56;;;;;;;9.20;8.30;;;8.80;99.90;;;;;;5077000;28;20427;-80
2022/09/23 07:07:25;;;;;;;22.03;8.50;;;8.90;99.90;;;;;;5077299;28;20469;-79
2022/09/23 07:09:52;;;;;;;9.33;7.60;;;9.10;99.90;;;;;;5077787;28;20459;-80
2022/09/23 07:12:18;;;;;;;90.70;10.97;;;9.20;99.90;;;;;;5076424;28;20437;-80
2022/09/23 07:14:45;;;;;;;14.57;8.60;;;9.20;99.90;;;;;;5077181;28;20816;-79
2022/09/23 07:17:13;;;;;;;8.63;7.67;;;9.30;99.90;;;;;;5082577;28;20861;-81
2022/09/23 07:19:40;;;;;;;8.20;7.40;;;9.30;99.90;;;;;;5083042;28;20448;-80
2022/09/23 07:22:06;;;;;;;10.97;8.10;;;9.50;99.90;;;;;;5077265;28;20861;-78
2022/09/23 07:24:33;;;;;;;10.07;8.20;;;9.60;99.90;;;;;;5076733;28;20449;-80
2022/09/23 07:27:00;;;;;;;11.93;7.30;;;9.70;99.90;;;;;;5077110;28;20573;-78
2022/09/23 07:29:27;;;;;;;8.13;7.30;;;9.80;99.90;;;;;;5077195;28;20445;-77
2022/09/23 07:31:54;;;;;;;9.00;8.10;;;9.80;99.90;;;;;;5076199;28;20452;-79
2022/09/23 07:34:24;;;;;;;15.97;8.77;;;9.90;99.90;;;;;;5074201;28;20443;-78
2022/09/23 07:36:53;;;;;;;10.13;8.50;;;10.00;99.90;;;;;;5075279;28;20468;-79
2022/09/23 07:39:19;;;;;;;9.57;8.57;;;10.10;99.90;;;;;;5076012;28;20518;-78
2022/09/23 07:41:46;;;;;;;8.77;7.97;;;10.20;99.90;;;;;;5076037;28;21008;-78
2022/09/23 07:44:13;;;;;;;8.77;8.07;;;10.30;99.90;;;;;;5076399;28;20511;-78
2022/09/23 07:46:40;;;;;;;8.77;7.97;;;10.40;99.90;;;;;;5082884;28;20480;-77
2022/09/23 07:49:06;;;;;;;9.40;8.60;;;10.50;99.90;;;;;;5076695;28;20441;-78
2022/09/23 07:51:37;;;;;;;13.73;10.37;;;10.60;99.90;;;;;;5076130;28;20456;-79
2022/09/23 07:54:07;;;;;;;8.37;7.27;;;10.70;99.90;;;;;;5076902;28;20483;-79
2022/09/23 07:56:34;;;;;;;9.87;8.90;;;10.90;99.90;;;;;;5076449;28;20832;-78
2022/09/23 07:59:02;;;;;;;12.47;9.20;;;11.00;99.90;;;;;;5077030;28;20852;-79
2022/09/23 08:01:31;;;;;;;7.57;6.87;;;11.10;99.90;;;;;;5077009;28;20453;-79
2022/09/23 08:04:02;;;;;;;8.07;7.27;;;11.20;99.90;;;;;;5076104;28;20476;-80
2022/09/23 08:06:29;;;;;;;8.80;7.10;;;11.20;99.90;;;;;;5077130;28;20464;-78
2022/09/23 08:09:00;;;;;;;7.47;6.77;;;11.20;99.90;;;;;;5079223;28;20445;-79
2022/09/23 08:11:30;;;;;;;9.07;7.03;;;11.40;99.90;;;;;;5078400;28;20425;-79
2022/09/23 08:13:57;;;;;;;8.67;6.27;;;11.50;1.00;;;;;;5077785;28;20481;-79
2022/09/23 08:16:24;;;;;;;7.30;6.60;;;11.50;1.00;;;;;;5078741;28;20468;-79
2022/09/23 08:18:51;;;;;;;9.47;7.13;;;11.70;1.00;;;;;;5075823;28;20449;-78
2022/09/23 08:21:19;;;;;;;6.40;5.80;;;11.70;18.00;;;;;;5076301;28;20445;-80
2022/09/23 08:23:46;;;;;;;6.33;5.73;;;12.00;99.90;;;;;;5079773;28;20516;-80
2022/09/23 08:26:14;;;;;;;7.20;6.57;;;12.30;99.90;;;;;;5082135;28;20495;-78
2022/09/23 08:28:43;;;;;;;7.77;7.17;;;12.20;94.40;;;;;;5084096;28;20445;-80
2022/09/23 08:31:11;;;;;;;7.83;6.90;;;12.30;1.00;;;;;;5082456;28;20951;-80
2022/09/23 08:33:37;;;;;;;14.17;7.23;;;12.30;1.00;;;;;;5077806;28;20452;-79
2022/09/23 08:36:05;;;;;;;20.13;6.33;;;12.40;1.00;;;;;;5077044;28;20469;-79
2022/09/23 08:38:31;;;;;;;12.30;6.43;;;12.40;99.90;;;;;;5075738;28;20449;-80
2022/09/23 08:41:06;;;;;;;8.60;6.00;;;12.40;99.90;;;;;;5077967;28;20795;-80
2022/09/23 08:43:36;;;;;;;6.10;5.47;;;12.40;51.90;;;;;;5079219;28;20473;-81
2022/09/23 08:46:05;;;;;;;5.37;4.87;;;12.50;99.90;;;;;;5077684;28;21009;-79
2022/09/23 08:48:36;;;;;;;5.57;5.00;;;12.60;99.90;;;;;;5077268;28;20457;-79
2022/09/23 08:51:07;;;;;;;8.97;6.27;;;12.70;1.00;;;;;;5079287;28;20191;-81
2022/09/23 08:53:39;;;;;;;8.70;6.13;;;12.70;1.00;;;;;;5077637;28;20425;-81
2022/09/23 08:56:11;;;;;;;7.10;5.80;;;12.70;99.90;;;;;;5076633;28;20475;-79
2022/09/23 08:58:48;;;;;;;6.30;5.70;;;12.80;99.90;;;;;;5076137;28;20433;-79
2022/09/23 09:01:22;;;;;;;8.13;5.30;;;12.80;99.90;;;;;;5076309;28;20459;-79
2022/09/23 09:03:53;;;;;;;6.00;5.20;;;12.90;99.90;;;;;;5079635;28;20815;-81
2022/09/23 09:06:24;;;;;;;4.50;4.10;;;13.00;99.90;;;;;;5079860;28;20504;-80
2022/09/23 09:08:55;;;;;;;5.53;5.03;;;13.00;1.00;;;;;;5079516;28;20489;-80
2022/09/23 09:11:27;;;;;;;4.70;4.30;;;13.00;1.00;;;;;;5079162;28;20429;-80
2022/09/23 09:14:39;;;;;;;5.20;4.70;;;13.10;1.00;;;;;;5078991;28;20506;-80
2022/09/23 09:17:09;;;;;;;5.50;5.00;;;13.20;99.90;;;;;;5072340;28;20499;-80
2022/09/23 09:19:52;;;;;;;5.20;4.80;;;13.20;99.90;;;;;;5078917;28;20440;-80
2022/09/23 09:22:21;;;;;;;4.07;3.77;;;13.20;15.10;;;;;;5081582;28;20429;-79
2022/09/23 09:24:49;;;;;;;5.47;4.97;;;13.30;1.00;;;;;;5086386;28;20483;-80
2022/09/23 09:27:15;;;;;;;9.33;6.13;;;13.30;1.00;;;;;;5079149;28;20499;-80
2022/09/23 09:29:48;;;;;;;6.33;5.73;;;13.40;99.90;;;;;;5079377;28;20445;-80
2022/09/23 09:32:22;;;;;;;4.97;4.47;;;13.40;1.00;;;;;;5078986;28;20440;-80
2022/09/23 09:34:55;;;;;;;6.43;5.20;;;13.60;99.90;;;;;;5079029;28;20429;-79
2022/09/23 09:37:30;;;;;;;4.00;3.70;;;13.60;99.90;;;;;;5078269;28;20544;-80
2022/09/23 09:39:56;;;;;;;4.03;3.80;;;13.90;99.90;;;;;;5078392;28;20915;-79
2022/09/23 09:42:27;;;;;;;4.30;3.90;;;13.70;19.00;;;;;;5078020;28;20453;-80
2022/09/23 09:45:00;;;;;;;4.43;3.30;;;13.80;1.00;;;;;;5078425;28;20526;-80
2022/09/23 09:47:39;;;;;;;4.67;4.37;;;13.80;1.00;;;;;;5077914;28;20497;-79
2022/09/23 09:50:08;;;;;;;4.50;3.60;;;13.80;1.00;;;;;;5078735;28;20904;-80
2022/09/23 09:52:36;;;;;;;4.27;3.93;;;13.90;99.90;;;;;;5081880;28;20445;-79
2022/09/23 09:55:25;;;;;;;4.23;3.93;;;13.90;1.00;;;;;;5089003;28;20433;-79
2022/09/23 09:57:59;;;;;;;5.87;3.93;;;14.00;99.90;;;;;;5096390;28;20483;-78
2022/09/23 10:00:42;;;;;;;6.30;5.47;;;14.00;99.90;;;;;;5095360;28;20429;-81
2022/09/23 10:03:26;;;;;;;9.13;4.53;;;14.10;99.90;;;;;;5080019;28;20500;-81
2022/09/23 10:05:53;;;;;;;5.50;4.97;;;14.60;99.40;;;;;;5080216;28;20474;-81
2022/09/23 10:08:27;;;;;;;4.00;3.70;;;14.30;1.00;;;;;;5078566;28;20886;-79
2022/09/23 10:11:01;;;;;;;3.70;3.40;;;14.30;99.90;;;;;;5078276;28;20417;-82
2022/09/23 10:13:29;;;;;;;3.53;3.33;;;14.30;30.40;;;;;;5078018;28;20444;-79
2022/09/23 10:15:58;;;;;;;3.70;3.30;;;14.40;1.00;;;;;;5077833;28;20494;-82
2022/09/23 10:18:30;;;;;;;14.43;3.70;;;14.50;99.90;;;;;;5078370;28;20451;-80
2022/09/23 10:21:06;;;;;;;7.20;3.90;;;14.50;99.90;;;;;;5082834;28;20432;-80
2022/09/23 10:23:33;;;;;;;3.57;2.97;;;14.60;99.90;;;;;;5079055;28;20983;-79
2022/09/23 10:26:02;;;;;;;3.50;2.93;;;14.60;99.90;;;;;;5080466;28;20460;-80
2022/09/23 10:28:57;;;;;;;3.03;2.80;;;14.60;99.90;;;;;;5079661;28;20449;-80
2022/09/23 10:31:27;;;;;;;4.60;3.67;;;14.70;99.90;;;;;;5043281;28;20457;-80
2022/09/23 10:33:58;;;;;;;5.80;3.20;;;14.70;1.00;;;;;;5078675;28;20441;-79
2022/09/23 10:36:26;;;;;;;3.27;3.03;;;14.80;99.90;;;;;;5078229;28;20518;-81
2022/09/23 10:46:36;;;;;;;3.20;2.63;;;14.90;99.90;;;;;;5078067;28;20487;-80
2022/09/23 10:47:47;;;;;;;3.30;3.10;;;14.90;1.00;;;;;;5077114;28;20467;-80
2022/09/23 10:50:30;;;;;;;6.03;2.70;;;15.00;73.50;;;;;;5077901;28;20478;-80
2022/09/23 10:53:08;;;;;;;2.77;2.57;;;15.10;99.90;;;;;;5077990;28;20791;-81
2022/09/23 10:55:50;;;;;;;2.80;2.60;;;15.20;99.90;;;;;;5078195;28;20433;-81
2022/09/23 10:58:49;;;;;;;2.87;2.70;;;15.10;1.00;;;;;;5080013;28;20504;-79
2022/09/23 11:01:30;;;;;;;2.90;2.70;;;15.30;48.70;;;;;;5079199;28;20433;-81
2022/09/23 11:04:27;;;;;;;5.63;3.50;;;15.50;99.90;;;;;;5078504;28;20471;-80
2022/09/23 11:07:11;;;;;;;9.10;3.83;;;15.20;99.90;;;;;;5066717;28;20530;-80
2022/09/23 11:09:50;;;;;;;2.17;2.03;;;15.20;37.80;;;;;;5077774;28;20468;-80
2022/09/23 11:12:30;;;;;;;2.50;2.33;;;15.10;1.00;;;;;;5077700;28;20780;-81
2022/09/23 11:15:19;;;;;;;3.07;2.77;;;15.20;99.90;;;;;;5078264;28;20843;-81
2022/09/23 11:18:17;;;;;;;3.20;2.90;;;15.30;99.90;;;;;;5078319;28;20476;-78
2022/09/23 11:20:59;;;;;;;3.50;3.00;;;15.50;99.90;;;;;;5079113;28;20452;-80
2022/09/23 11:23:49;;;;;;;3.37;3.07;;;15.40;1.00;;;;;;5079030;28;20429;-80
2022/09/23 11:26:30;;;;;;;3.50;3.27;;;15.50;99.90;;;;;;5081693;28;20469;-79
2022/09/23 11:29:18;;;;;;;3.77;3.47;;;15.50;99.90;;;;;;5085140;28;20451;-79
2022/09/23 11:31:53;;;;;;;3.23;3.03;;;15.50;99.90;;;;;;5085391;28;20425;-80
2022/09/23 11:34:40;;;;;;;3.53;3.27;;;15.60;99.90;;;;;;5085964;28;20425;-78
2022/09/23 11:37:12;;;;;;;4.53;2.90;;;15.50;1.00;;;;;;5081932;28;20467;-79
2022/09/23 11:39:44;;;;;;;5.80;3.40;;;15.60;99.90;;;;;;5079457;28;20516;-76
2022/09/23 11:42:19;;;;;;;2.53;2.33;;;15.50;99.90;;;;;;5078135;28;20433;-80
2022/09/23 11:44:51;;;;;;;4.13;2.90;;;15.60;99.90;;;;;;5078271;28;20464;-80
2022/09/23 11:47:24;;;;;;;2.40;2.30;;;15.60;99.90;;;;;;5083222;28;20563;-79
2022/09/23 11:49:57;;;;;;;2.47;2.27;;;15.60;1.00;;;;;;5085564;28;20429;-79
2022/09/23 11:52:31;;;;;;;2.60;2.40;;;15.60;5.90;;;;;;5080108;28;20440;-79
2022/09/23 11:55:06;;;;;;;2.30;2.20;;;15.60;1.00;;;;;;5078502;28;20486;-80
2022/09/23 11:57:38;;;;;;;3.30;3.10;;;15.50;1.00;;;;;;5084103;28;21026;-78
2022/09/23 12:00:14;;;;;;;4.50;3.20;;;15.60;1.00;;;;;;5084524;28;20432;-77
2022/09/23 12:02:54;;;;;;;2.67;2.47;;;15.70;1.00;;;;;;5079938;28;20520;-79
2022/09/23 12:05:29;;;;;;;4.07;2.87;;;15.80;9.80;;;;;;5077468;28;20496;-80
2022/09/23 12:08:03;;;;;;;3.30;3.10;;;15.70;1.00;;;;;;5076688;28;20460;-80
2022/09/23 12:10:41;;;;;;;2.97;2.67;;;15.70;1.00;;;;;;5077376;28;20486;-80
2022/09/23 12:13:15;;;;;;;3.10;2.60;;;16.10;99.90;;;;;;5076293;28;20498;-81
2022/09/23 12:16:10;;;;;;;3.00;2.80;;;15.60;1.00;;;;;;5076853;28;20494;-80
2022/09/23 12:18:48;;;;;;;3.00;2.70;;;15.90;99.90;;;;;;5075490;28;20445;-80
2022/09/23 12:21:32;;;;;;;3.47;3.17;;;15.80;34.40;;;;;;5075956;28;20437;-80
2022/09/23 12:24:21;;;;;;;3.23;2.77;;;15.80;7.60;;;;;;5076073;28;20551;-80
2022/09/23 12:26:56;;;;;;;7.33;3.13;;;15.90;38.70;;;;;;5074111;28;20866;-79
2022/09/23 12:29:30;;;;;;;4.50;3.07;;;15.90;39.90;;;;;;5076466;28;21090;-81
2022/09/23 12:32:00;;;;;;;3.50;2.80;;;15.90;91.80;;;;;;5075721;28;20435;-79
2022/09/23 12:34:33;;;;;;;5.23;2.47;;;15.80;99.90;;;;;;5075978;28;20488;-78
2022/09/23 12:37:03;;;;;;;2.63;2.43;;;15.90;1.00;;;;;;5077620;28;20473;-79
2022/09/23 12:39:36;;;;;;;3.83;3.47;;;15.90;99.90;;;;;;5080013;28;20482;-79
2022/09/23 12:42:05;;;;;;;3.43;3.13;;;15.90;99.90;;;;;;5079858;28;20503;-80
2022/09/23 12:44:38;;;;;;;3.93;3.60;;;15.80;67.10;;;;;;5080093;28;20511;-80
2022/09/23 12:47:30;;;;;;;3.17;2.67;;;15.90;99.90;;;;;;5092754;22;20522;-77
2022/09/23 12:49:57;;;;;;;2.67;2.20;;;15.90;1.00;;;;;;5079761;28;20460;-77
2022/09/23 12:52:25;;;;;;;8.27;2.00;;;16.00;1.00;;;;;;5078222;28;20830;-78
2022/09/23 12:54:56;;;;;;;2.57;2.37;;;16.00;1.00;;;;;;5077242;28;20490;-79
2022/09/23 12:57:42;;;;;;;2.70;2.10;;;16.00;1.00;;;;;;5077716;28;20475;-77
2022/09/23 13:00:23;;;;;;;3.20;2.90;;;16.00;1.00;;;;;;5079302;28;20992;-77
2022/09/23 13:08:31;;;;;;;2.87;2.67;;;16.10;1.00;;;;;;5077202;28;20977;-77
2022/09/23 13:11:02;;;;;;;4.00;2.30;;;16.10;1.00;;;;;;5077173;28;20590;-78
2022/09/23 13:13:34;;;;;;;2.10;2.00;;;16.00;1.00;;;;;;5077681;28;20429;-77
2022/09/23 13:16:13;;;;;;;2.30;2.20;;;16.00;1.00;;;;;;5077355;28;20444;-79
2022/09/23 13:18:58;;;;;;;2.60;2.40;;;16.00;1.00;;;;;;5078198;28;20872;-78
2022/09/23 13:22:01;;;;;;;4.70;3.40;;;15.90;1.00;;;;;;5079204;28;20432;-79
2022/09/23 13:24:46;;;;;;;2.83;2.63;;;15.80;17.00;;;;;;5078463;28;21032;-78
2022/09/23 13:27:20;;;;;;;3.30;3.10;;;15.70;1.00;;;;;;5078219;28;20484;-78